Knot Wafflen' — WDJ5245 — position and weather

sailwx.info

Track history (hours):
 
Tides and Currents Weather Stations Pressure Air Temp Water Temp Dewpoint Dewpoint Depression Visibility Wind Speed Wind Dir Waves Ship Positions

Knot Wafflen'

Owner: Atlantic Power Proa LLC, Oldsmar,, FL. More information available from US FCC via Universal Licensing System and Coast Guard Vessel Documentation Center.

Last reported at 2017-Oct-07 16:32 UTC. Time now 2017-Oct-18 22:33 UTC.
Position N 34°04' W 119°10'.
Warning: this ship's position is 11 days out of date.

Length 14 m.

Type: Pleasure craft. MMSI: 367785770.

Date/timePositionNaut miles runAvg speedWind from/ knotsBaromVisibWave heightAir tempDewpointWater temp
2017-Oct-07 16:32N 34°04' W 119°10'117.2
2017-Oct-07 16:28N 34°05' W 119°11'1315.6
2017-Oct-07 15:39N 34°14' W 119°21'4 9.6
2017-Oct-07 15:15N 34°17' W 119°25'16 8.1
2017-Oct-07 13:21N 34°24' W 119°41'0 0.0
2017-Oct-07 12:51N 34°24' W 119°41'0 0.0
2017-Oct-07 11:33N 34°24' W 119°41'0 0.0
2017-Oct-07 11:30N 34°24' W 119°41'0 0.0
2017-Oct-07 10:57N 34°24' W 119°41'0 0.0
2017-Oct-07 06:15N 34°24' W 119°41'0 0.0
2017-Oct-07 05:57N 34°24' W 119°41'0 0.0
2017-Oct-07 04:42N 34°24' W 119°41'0 0.0
2017-Oct-07 04:30N 34°24' W 119°41'0 0.0
2017-Oct-07 02:15N 34°24' W 119°41'0 0.0
2017-Oct-06 21:03N 34°24' W 119°42'0 1.6
2017-Oct-06 20:58N 34°24' W 119°41'610.0
2017-Oct-06 20:25N 34°22' W 119°48'716.5
2017-Oct-06 19:58N 34°24' W 119°56'816.3
2017-Oct-06 19:29N 34°24' W 120°06'816.0
2017-Oct-06 19:00N 34°24' W 120°15'815.3
2017-Oct-06 18:29N 34°25' W 120°25'714.6
2017-Oct-06 17:59N 34°26' W 120°34'1815.5
2017-Oct-06 16:48N 34°43' W 120°44'516.4
2017-Oct-06 16:30N 34°47' W 120°45'916.3
2017-Oct-06 15:59N 34°55' W 120°49'174 3.6
2017-Oct-04 15:33N 37°27' W 122°34'118.0
2017-Oct-04 15:29N 37°29' W 122°34'2015.7
2017-Oct-04 14:14N 37°48' W 122°32'311.6
2017-Oct-04 13:59N 37°49' W 122°28'1 2.1
2017-Oct-04 13:25N 37°48' W 122°27'0 0.0
2017-Oct-04 12:58N 37°48' W 122°27'0 0.0
2017-Oct-04 12:24N 37°48' W 122°27'0 0.0
2017-Oct-04 11:54N 37°48' W 122°27'0 0.0
2017-Oct-04 11:30N 37°48' W 122°27'0 0.0
2017-Oct-04 11:00N 37°48' W 122°27'0 0.0
2017-Oct-04 10:30N 37°48' W 122°27'0 0.0
2017-Oct-04 09:54N 37°48' W 122°27'0 0.0
2017-Oct-04 09:30N 37°48' W 122°27'0 0.0
2017-Oct-04 08:54N 37°48' W 122°27'0 0.0
2017-Oct-04 08:30N 37°48' W 122°27'0 0.0
2017-Oct-04 08:00N 37°48' W 122°27'0 0.0
2017-Oct-04 07:30N 37°48' W 122°27'0 0.0
2017-Oct-04 06:57N 37°48' W 122°27'0 0.0
2017-Oct-04 06:30N 37°48' W 122°27'0 0.0
2017-Oct-04 06:00N 37°48' W 122°27'0 0.0
2017-Oct-04 05:30N 37°48' W 122°27'0 0.0
2017-Oct-04 05:00N 37°48' W 122°27'0 0.0
2017-Oct-04 04:27N 37°48' W 122°27'0 0.0
2017-Oct-04 03:53N 37°48' W 122°27'0 0.0
2017-Oct-04 03:20N 37°48' W 122°27'0 0.0
2017-Oct-04 02:59N 37°48' W 122°27'0 0.0
2017-Oct-04 02:26N 37°48' W 122°27'0 0.0
2017-Oct-04 01:53N 37°48' W 122°27'0 0.0
2017-Oct-04 01:30N 37°48' W 122°27'0 0.0
2017-Oct-04 00:51N 37°48' W 122°27'0 0.0
2017-Oct-04 00:26N 37°48' W 122°27'0 0.0
2017-Oct-03 23:59N 37°48' W 122°27'0 0.0
2017-Oct-03 23:29N 37°48' W 122°27'0 0.0
2017-Oct-03 22:59N 37°48' W 122°27'0 0.0
2017-Oct-03 22:29N 37°48' W 122°27'0 0.0
2017-Oct-03 21:59N 37°48' W 122°27'0 0.0
2017-Oct-03 21:29N 37°48' W 122°27'0 0.0
2017-Oct-03 20:59N 37°48' W 122°27'0 0.0
2017-Oct-03 20:29N 37°48' W 122°27'0 0.0
2017-Oct-03 19:59N 37°48' W 122°27'0 0.0
2017-Oct-03 19:19N 37°48' W 122°27'0 0.0
2017-Oct-03 18:58N 37°48' W 122°27'0 0.0
2017-Oct-03 18:28N 37°48' W 122°27'0 0.0
2017-Oct-03 17:58N 37°48' W 122°27'0 0.0
2017-Oct-03 17:28N 37°48' W 122°27'0 0.0
2017-Oct-03 16:58N 37°48' W 122°27'0 0.0
2017-Oct-03 16:22N 37°48' W 122°27'0 0.0
2017-Oct-03 15:55N 37°48' W 122°27'0 0.0
2017-Oct-03 15:28N 37°48' W 122°27'0 0.0
2017-Oct-03 14:55N 37°48' W 122°27'0 0.0
2017-Oct-03 13:58N 37°48' W 122°27'0 0.0
2017-Oct-03 13:28N 37°48' W 122°27'0 0.0
2017-Oct-03 12:58N 37°48' W 122°27'0 0.0
2017-Oct-03 12:28N 37°48' W 122°27'0 0.0
2017-Oct-03 11:58N 37°48' W 122°27'0 0.0
2017-Oct-03 11:28N 37°48' W 122°27'0 0.0
2017-Oct-03 10:55N 37°48' W 122°27'0 0.0
2017-Oct-03 10:22N 37°48' W 122°27'0 0.0
2017-Oct-03 09:58N 37°48' W 122°27'0 0.0
2017-Oct-03 09:28N 37°48' W 122°27'0 0.0
2017-Oct-03 08:52N 37°48' W 122°27'0 0.0
2017-Oct-03 08:28N 37°48' W 122°27'0 0.0
2017-Oct-03 08:01N 37°48' W 122°27'0 0.0
2017-Oct-03 07:30N 37°48' W 122°27'0 0.0
2017-Oct-03 07:00N 37°48' W 122°27'0 0.0
2017-Oct-03 06:30N 37°48' W 122°27'0 0.0
2017-Oct-03 06:00N 37°48' W 122°27'0 0.0
2017-Oct-03 05:30N 37°48' W 122°27'0 0.0
2017-Oct-03 05:00N 37°48' W 122°27'0 0.0
2017-Oct-03 04:30N 37°48' W 122°27'0 0.0
2017-Oct-03 03:54N 37°48' W 122°27'0 0.0
2017-Oct-03 03:27N 37°48' W 122°27'0 0.0
2017-Oct-03 03:00N 37°48' W 122°27'0 0.0
2017-Oct-03 02:30N 37°48' W 122°27'0 0.0
2017-Oct-03 02:00N 37°48' W 122°27'0 0.0
2017-Oct-03 01:30N 37°48' W 122°27'0 0.0
2017-Oct-03 01:00N 37°48' W 122°27'0 0.0
2017-Oct-03 00:30N 37°48' W 122°27'0 0.0
2017-Oct-03 00:00N 37°48' W 122°27'0 0.0
2017-Oct-02 23:30N 37°48' W 122°27'0 0.0
2017-Oct-02 23:00N 37°48' W 122°27'0 0.0
2017-Oct-02 22:30N 37°48' W 122°27'0 0.0
2017-Oct-02 21:59N 37°48' W 122°27'0 0.0
2017-Oct-02 21:29N 37°48' W 122°27'0 0.0
2017-Oct-02 20:59N 37°48' W 122°27'0 0.0
2017-Oct-02 20:29N 37°48' W 122°27'0 0.0
2017-Oct-02 19:56N 37°48' W 122°27'0 0.0
2017-Oct-02 19:26N 37°48' W 122°27'0 0.0
2017-Oct-02 18:59N 37°48' W 122°27'0 0.0
2017-Oct-02 18:29N 37°48' W 122°27'2 3.3
2017-Oct-02 18:00N 37°50' W 122°27'3 6.1
2017-Oct-02 17:29N 37°52' W 122°30'0 0.2
2017-Oct-02 17:00N 37°52' W 122°30'0 0.0
2017-Oct-02 16:30N 37°52' W 122°30'0 0.0
2017-Oct-02 16:00N 37°52' W 122°30'0 0.0
2017-Oct-02 15:27N 37°52' W 122°30'0 0.0
2017-Oct-02 15:00N 37°52' W 122°30'0 0.0
2017-Oct-02 14:30N 37°52' W 122°30'0 0.0
2017-Oct-02 14:00N 37°52' W 122°30'0 0.0
2017-Oct-02 13:27N 37°52' W 122°30'0 0.0
2017-Oct-02 13:00N 37°52' W 122°30'0 0.0
2017-Oct-02 12:27N 37°52' W 122°30'0 0.0
2017-Oct-02 12:00N 37°52' W 122°30'0 0.0
2017-Oct-02 11:30N 37°52' W 122°30'0 0.0
2017-Oct-02 10:57N 37°52' W 122°30'0 0.0
2017-Oct-02 10:30N 37°52' W 122°30'0 0.0
2017-Oct-02 10:00N 37°52' W 122°30'0 0.0
2017-Oct-02 09:30N 37°52' W 122°30'0 0.0
2017-Oct-02 09:00N 37°52' W 122°30'0 0.0
2017-Oct-02 08:30N 37°52' W 122°30'0 0.0
2017-Oct-02 08:00N 37°52' W 122°30'0 0.0
2017-Oct-02 07:30N 37°52' W 122°30'0 0.0
2017-Oct-02 07:00N 37°52' W 122°30'0 0.0
2017-Oct-02 06:30N 37°52' W 122°30'0 0.0
2017-Oct-02 06:00N 37°52' W 122°30'0 0.0
2017-Oct-02 05:30N 37°52' W 122°30'0 0.0
2017-Oct-02 05:00N 37°52' W 122°30'0 0.0
2017-Oct-02 04:27N 37°52' W 122°30'0 0.0
2017-Oct-02 04:00N 37°52' W 122°30'0 0.0
2017-Oct-02 03:30N 37°52' W 122°30'0 0.0
2017-Oct-02 03:00N 37°52' W 122°30'0 0.0
2017-Oct-02 02:27N 37°52' W 122°30'0 0.0
2017-Oct-02 02:00N 37°52' W 122°30'0 0.0
2017-Oct-02 01:30N 37°52' W 122°30'0 0.0
2017-Oct-02 01:00N 37°52' W 122°30'0 0.0
2017-Oct-01 22:17N 37°52' W 122°30'0 0.0
2017-Oct-01 21:53N 37°52' W 122°30'0 0.0
2017-Oct-01 20:14N 37°52' W 122°30'0 0.0
2017-Oct-01 19:44N 37°52' W 122°30'0 0.0
2017-Oct-01 19:17N 37°52' W 122°30'0 0.0
2017-Oct-01 18:59N 37°52' W 122°30'0 0.0
2017-Oct-01 18:29N 37°52' W 122°30'0 0.0
2017-Oct-01 17:59N 37°52' W 122°30'0 0.0
2017-Oct-01 17:26N 37°52' W 122°30'0 0.0
2017-Oct-01 16:56N 37°52' W 122°30'0 0.0
2017-Oct-01 16:29N 37°52' W 122°30'0 0.0
2017-Oct-01 15:56N 37°52' W 122°30'0 0.0
2017-Oct-01 15:29N 37°52' W 122°30'0 0.0
2017-Oct-01 14:59N 37°52' W 122°30'0 0.0
2017-Oct-01 14:29N 37°52' W 122°30'0 0.0
2017-Oct-01 13:59N 37°52' W 122°30'0 0.0
2017-Oct-01 13:29N 37°52' W 122°30'0 0.0
2017-Oct-01 12:59N 37°52' W 122°30'0 0.0
2017-Oct-01 12:29N 37°52' W 122°30'0 0.0
2017-Oct-01 11:59N 37°52' W 122°30'0 0.0
2017-Oct-01 11:29N 37°52' W 122°30'0 0.0
2017-Oct-01 10:59N 37°52' W 122°30'0 0.0
2017-Oct-01 10:29N 37°52' W 122°30'0 0.0
2017-Oct-01 09:59N 37°52' W 122°30'0 0.0
2017-Oct-01 09:29N 37°52' W 122°30'0 0.0
2017-Oct-01 08:56N 37°52' W 122°30'0 0.0
2017-Oct-01 08:29N 37°52' W 122°30'0 0.0
2017-Oct-01 07:59N 37°52' W 122°30'0 0.0
2017-Oct-01 07:29N 37°52' W 122°30'0 0.0
2017-Oct-01 06:59N 37°52' W 122°30'0 0.0
2017-Oct-01 06:29N 37°52' W 122°30'0 0.0
2017-Oct-01 05:59N 37°52' W 122°30'0 0.0
2017-Oct-01 05:29N 37°52' W 122°30'0 0.0
2017-Sep-30 01:52N 37°52' W 122°30'0 0.0
2017-Sep-30 01:25N 37°52' W 122°30'0 0.0
2017-Sep-30 00:58N 37°52' W 122°30'0 0.0
2017-Sep-30 00:28N 37°52' W 122°30'0 0.0
2017-Sep-29 23:55N 37°52' W 122°30'0 0.0
2017-Sep-29 23:22N 37°52' W 122°30'0 0.0
2017-Sep-29 22:58N 37°52' W 122°30'0 0.0
2017-Sep-29 21:04N 37°52' W 122°30'0 0.0
2017-Sep-29 20:58N 37°52' W 122°30'0 0.0
2017-Sep-29 20:25N 37°52' W 122°30'0 0.7
2017-Sep-29 20:00N 37°52' W 122°29'4 6.6
2017-Sep-29 19:28N 37°48' W 122°30'2714.3
2017-Sep-29 17:36N 37°57' W 123°02'315.9
2017-Sep-29 17:26N 37°60' W 123°03'715.6
2017-Sep-29 17:00N 38°06' W 123°03'815.5
2017-Sep-29 16:30N 38°14' W 123°02'510.8
2017-Sep-29 16:00N 38°19' W 123°03'1 1.1
2017-Sep-29 15:28N 38°20' W 123°03'0 0.1
2017-Sep-29 14:56N 38°20' W 123°03'0 0.0
2017-Sep-29 14:26N 38°20' W 123°03'0 0.0
2017-Sep-29 13:56N 38°20' W 123°03'0 0.0
2017-Sep-29 13:26N 38°20' W 123°03'0 0.0
2017-Sep-29 12:56N 38°20' W 123°03'0 0.0
2017-Sep-29 12:26N 38°20' W 123°03'0 0.0
2017-Sep-29 11:56N 38°20' W 123°03'0 0.0
2017-Sep-29 11:26N 38°20' W 123°03'0 0.0
2017-Sep-29 10:56N 38°20' W 123°03'0 0.1
2017-Sep-29 10:26N 38°20' W 123°03'0 0.1
2017-Sep-29 09:56N 38°20' W 123°03'0 0.0
2017-Sep-29 09:26N 38°20' W 123°03'0 0.0
2017-Sep-29 08:56N 38°20' W 123°03'0 0.0
2017-Sep-29 08:26N 38°20' W 123°03'0 0.0
2017-Sep-29 07:50N 38°20' W 123°03'0 0.0
2017-Sep-29 07:26N 38°20' W 123°03'0 0.0
2017-Sep-29 06:56N 38°20' W 123°03'0 0.0
2017-Sep-29 06:26N 38°20' W 123°03'0 0.0
2017-Sep-29 05:56N 38°20' W 123°03'0 0.0
2017-Sep-29 05:14N 38°20' W 123°03'0 0.0
2017-Sep-29 04:56N 38°20' W 123°03'0 0.0
2017-Sep-29 04:26N 38°20' W 123°03'0 0.0
2017-Sep-29 03:56N 38°20' W 123°03'0 0.0
2017-Sep-29 03:26N 38°20' W 123°03'0 0.0
2017-Sep-29 02:56N 38°20' W 123°03'0 0.0
2017-Sep-29 02:14N 38°20' W 123°03'0 0.0
2017-Sep-29 01:56N 38°20' W 123°03'0 0.0
2017-Sep-29 01:26N 38°20' W 123°03'0 0.1
2017-Sep-29 01:00N 38°20' W 123°03'3 5.8
2017-Sep-29 00:30N 38°17' W 123°03'816.8
2017-Sep-29 00:00N 38°22' W 123°12'  
Track history (hours):
 
Tides and Currents Weather Stations Pressure Air Temp Water Temp Dewpoint Dewpoint Depression Visibility Wind Speed Wind Dir Waves Ship Positions

Knot Wafflen'

Owner: Atlantic Power Proa LLC, Oldsmar,, FL. More information available from US FCC via Universal Licensing System and Coast Guard Vessel Documentation Center.

Last reported at 2017-Oct-07 16:32 UTC. Time now 2017-Oct-18 22:33 UTC.
Position N 34°04' W 119°10'.
Warning: this ship's position is 11 days out of date.

Length 14 m.

Type: Pleasure craft. MMSI: 367785770.

Date/timePositionNaut miles runAvg speedWind from/ knotsBaromVisibWave heightAir tempDewpointWater temp
2017-Oct-07 16:32N 34°04' W 119°10'117.2
2017-Oct-07 16:28N 34°05' W 119°11'1315.6
2017-Oct-07 15:39N 34°14' W 119°21'4 9.6
2017-Oct-07 15:15N 34°17' W 119°25'16 8.1
2017-Oct-07 13:21N 34°24' W 119°41'0 0.0
2017-Oct-07 12:51N 34°24' W 119°41'0 0.0
2017-Oct-07 11:33N 34°24' W 119°41'0 0.0
2017-Oct-07 11:30N 34°24' W 119°41'0 0.0
2017-Oct-07 10:57N 34°24' W 119°41'0 0.0
2017-Oct-07 06:15N 34°24' W 119°41'0 0.0
2017-Oct-07 05:57N 34°24' W 119°41'0 0.0
2017-Oct-07 04:42N 34°24' W 119°41'0 0.0
2017-Oct-07 04:30N 34°24' W 119°41'0 0.0
2017-Oct-07 02:15N 34°24' W 119°41'0 0.0
2017-Oct-06 21:03N 34°24' W 119°42'0 1.6
2017-Oct-06 20:58N 34°24' W 119°41'610.0
2017-Oct-06 20:25N 34°22' W 119°48'716.5
2017-Oct-06 19:58N 34°24' W 119°56'816.3
2017-Oct-06 19:29N 34°24' W 120°06'816.0
2017-Oct-06 19:00N 34°24' W 120°15'815.3
2017-Oct-06 18:29N 34°25' W 120°25'714.6
2017-Oct-06 17:59N 34°26' W 120°34'1815.5
2017-Oct-06 16:48N 34°43' W 120°44'516.4
2017-Oct-06 16:30N 34°47' W 120°45'916.3
2017-Oct-06 15:59N 34°55' W 120°49'174 3.6
2017-Oct-04 15:33N 37°27' W 122°34'118.0
2017-Oct-04 15:29N 37°29' W 122°34'2015.7
2017-Oct-04 14:14N 37°48' W 122°32'311.6
2017-Oct-04 13:59N 37°49' W 122°28'1 2.1
2017-Oct-04 13:25N 37°48' W 122°27'0 0.0
2017-Oct-04 12:58N 37°48' W 122°27'0 0.0
2017-Oct-04 12:24N 37°48' W 122°27'0 0.0
2017-Oct-04 11:54N 37°48' W 122°27'0 0.0
2017-Oct-04 11:30N 37°48' W 122°27'0 0.0
2017-Oct-04 11:00N 37°48' W 122°27'0 0.0
2017-Oct-04 10:30N 37°48' W 122°27'0 0.0
2017-Oct-04 09:54N 37°48' W 122°27'0 0.0
2017-Oct-04 09:30N 37°48' W 122°27'0 0.0
2017-Oct-04 08:54N 37°48' W 122°27'0 0.0
2017-Oct-04 08:30N 37°48' W 122°27'0 0.0
2017-Oct-04 08:00N 37°48' W 122°27'0 0.0
2017-Oct-04 07:30N 37°48' W 122°27'0 0.0
2017-Oct-04 06:57N 37°48' W 122°27'0 0.0
2017-Oct-04 06:30N 37°48' W 122°27'0 0.0
2017-Oct-04 06:00N 37°48' W 122°27'0 0.0
2017-Oct-04 05:30N 37°48' W 122°27'0 0.0
2017-Oct-04 05:00N 37°48' W 122°27'0 0.0
2017-Oct-04 04:27N 37°48' W 122°27'0 0.0
2017-Oct-04 03:53N 37°48' W 122°27'0 0.0
2017-Oct-04 03:20N 37°48' W 122°27'0 0.0
2017-Oct-04 02:59N 37°48' W 122°27'0 0.0
2017-Oct-04 02:26N 37°48' W 122°27'0 0.0
2017-Oct-04 01:53N 37°48' W 122°27'0 0.0
2017-Oct-04 01:30N 37°48' W 122°27'0 0.0
2017-Oct-04 00:51N 37°48' W 122°27'0 0.0
2017-Oct-04 00:26N 37°48' W 122°27'0 0.0
2017-Oct-03 23:59N 37°48' W 122°27'0 0.0
2017-Oct-03 23:29N 37°48' W 122°27'0 0.0
2017-Oct-03 22:59N 37°48' W 122°27'0 0.0
2017-Oct-03 22:29N 37°48' W 122°27'0 0.0
2017-Oct-03 21:59N 37°48' W 122°27'0 0.0
2017-Oct-03 21:29N 37°48' W 122°27'0 0.0
2017-Oct-03 20:59N 37°48' W 122°27'0 0.0
2017-Oct-03 20:29N 37°48' W 122°27'0 0.0
2017-Oct-03 19:59N 37°48' W 122°27'0 0.0
2017-Oct-03 19:19N 37°48' W 122°27'0 0.0
2017-Oct-03 18:58N 37°48' W 122°27'0 0.0
2017-Oct-03 18:28N 37°48' W 122°27'0 0.0
2017-Oct-03 17:58N 37°48' W 122°27'0 0.0
2017-Oct-03 17:28N 37°48' W 122°27'0 0.0
2017-Oct-03 16:58N 37°48' W 122°27'0 0.0
2017-Oct-03 16:22N 37°48' W 122°27'0 0.0
2017-Oct-03 15:55N 37°48' W 122°27'0 0.0
2017-Oct-03 15:28N 37°48' W 122°27'0 0.0
2017-Oct-03 14:55N 37°48' W 122°27'0 0.0
2017-Oct-03 13:58N 37°48' W 122°27'0 0.0
2017-Oct-03 13:28N 37°48' W 122°27'0 0.0
2017-Oct-03 12:58N 37°48' W 122°27'0 0.0
2017-Oct-03 12:28N 37°48' W 122°27'0 0.0
2017-Oct-03 11:58N 37°48' W 122°27'0 0.0
2017-Oct-03 11:28N 37°48' W 122°27'0 0.0
2017-Oct-03 10:55N 37°48' W 122°27'0 0.0
2017-Oct-03 10:22N 37°48' W 122°27'0 0.0
2017-Oct-03 09:58N 37°48' W 122°27'0 0.0
2017-Oct-03 09:28N 37°48' W 122°27'0 0.0
2017-Oct-03 08:52N 37°48' W 122°27'0 0.0
2017-Oct-03 08:28N 37°48' W 122°27'0 0.0
2017-Oct-03 08:01N 37°48' W 122°27'0 0.0
2017-Oct-03 07:30N 37°48' W 122°27'0 0.0
2017-Oct-03 07:00N 37°48' W 122°27'0 0.0
2017-Oct-03 06:30N 37°48' W 122°27'0 0.0
2017-Oct-03 06:00N 37°48' W 122°27'0 0.0
2017-Oct-03 05:30N 37°48' W 122°27'0 0.0
2017-Oct-03 05:00N 37°48' W 122°27'0 0.0
2017-Oct-03 04:30N 37°48' W 122°27'0 0.0
2017-Oct-03 03:54N 37°48' W 122°27'0 0.0
2017-Oct-03 03:27N 37°48' W 122°27'0 0.0
2017-Oct-03 03:00N 37°48' W 122°27'0 0.0
2017-Oct-03 02:30N 37°48' W 122°27'0 0.0
2017-Oct-03 02:00N 37°48' W 122°27'0 0.0
2017-Oct-03 01:30N 37°48' W 122°27'0 0.0
2017-Oct-03 01:00N 37°48' W 122°27'0 0.0
2017-Oct-03 00:30N 37°48' W 122°27'0 0.0
2017-Oct-03 00:00N 37°48' W 122°27'0 0.0
2017-Oct-02 23:30N 37°48' W 122°27'0 0.0
2017-Oct-02 23:00N 37°48' W 122°27'0 0.0
2017-Oct-02 22:30N 37°48' W 122°27'0 0.0
2017-Oct-02 21:59N 37°48' W 122°27'0 0.0
2017-Oct-02 21:29N 37°48' W 122°27'0 0.0
2017-Oct-02 20:59N 37°48' W 122°27'0 0.0
2017-Oct-02 20:29N 37°48' W 122°27'0 0.0
2017-Oct-02 19:56N 37°48' W 122°27'0 0.0
2017-Oct-02 19:26N 37°48' W 122°27'0 0.0
2017-Oct-02 18:59N 37°48' W 122°27'0 0.0
2017-Oct-02 18:29N 37°48' W 122°27'2 3.3
2017-Oct-02 18:00N 37°50' W 122°27'3 6.1
2017-Oct-02 17:29N 37°52' W 122°30'0 0.2
2017-Oct-02 17:00N 37°52' W 122°30'0 0.0
2017-Oct-02 16:30N 37°52' W 122°30'0 0.0
2017-Oct-02 16:00N 37°52' W 122°30'0 0.0
2017-Oct-02 15:27N 37°52' W 122°30'0 0.0
2017-Oct-02 15:00N 37°52' W 122°30'0 0.0
2017-Oct-02 14:30N 37°52' W 122°30'0 0.0
2017-Oct-02 14:00N 37°52' W 122°30'0 0.0
2017-Oct-02 13:27N 37°52' W 122°30'0 0.0
2017-Oct-02 13:00N 37°52' W 122°30'0 0.0
2017-Oct-02 12:27N 37°52' W 122°30'0 0.0
2017-Oct-02 12:00N 37°52' W 122°30'0 0.0
2017-Oct-02 11:30N 37°52' W 122°30'0 0.0
2017-Oct-02 10:57N 37°52' W 122°30'0 0.0
2017-Oct-02 10:30N 37°52' W 122°30'0 0.0
2017-Oct-02 10:00N 37°52' W 122°30'0 0.0
2017-Oct-02 09:30N 37°52' W 122°30'0 0.0
2017-Oct-02 09:00N 37°52' W 122°30'0 0.0
2017-Oct-02 08:30N 37°52' W 122°30'0 0.0
2017-Oct-02 08:00N 37°52' W 122°30'0 0.0
2017-Oct-02 07:30N 37°52' W 122°30'0 0.0
2017-Oct-02 07:00N 37°52' W 122°30'0 0.0
2017-Oct-02 06:30N 37°52' W 122°30'0 0.0
2017-Oct-02 06:00N 37°52' W 122°30'0 0.0
2017-Oct-02 05:30N 37°52' W 122°30'0 0.0
2017-Oct-02 05:00N 37°52' W 122°30'0 0.0
2017-Oct-02 04:27N 37°52' W 122°30'0 0.0
2017-Oct-02 04:00N 37°52' W 122°30'0 0.0
2017-Oct-02 03:30N 37°52' W 122°30'0 0.0
2017-Oct-02 03:00N 37°52' W 122°30'0 0.0
2017-Oct-02 02:27N 37°52' W 122°30'0 0.0
2017-Oct-02 02:00N 37°52' W 122°30'0 0.0
2017-Oct-02 01:30N 37°52' W 122°30'0 0.0
2017-Oct-02 01:00N 37°52' W 122°30'0 0.0
2017-Oct-01 22:17N 37°52' W 122°30'0 0.0
2017-Oct-01 21:53N 37°52' W 122°30'0 0.0
2017-Oct-01 20:14N 37°52' W 122°30'0 0.0
2017-Oct-01 19:44N 37°52' W 122°30'0 0.0
2017-Oct-01 19:17N 37°52' W 122°30'0 0.0
2017-Oct-01 18:59N 37°52' W 122°30'0 0.0
2017-Oct-01 18:29N 37°52' W 122°30'0 0.0
2017-Oct-01 17:59N 37°52' W 122°30'0 0.0
2017-Oct-01 17:26N 37°52' W 122°30'0 0.0
2017-Oct-01 16:56N 37°52' W 122°30'0 0.0
2017-Oct-01 16:29N 37°52' W 122°30'0 0.0
2017-Oct-01 15:56N 37°52' W 122°30'0 0.0
2017-Oct-01 15:29N 37°52' W 122°30'0 0.0
2017-Oct-01 14:59N 37°52' W 122°30'0 0.0
2017-Oct-01 14:29N 37°52' W 122°30'0 0.0
2017-Oct-01 13:59N 37°52' W 122°30'0 0.0
2017-Oct-01 13:29N 37°52' W 122°30'0 0.0
2017-Oct-01 12:59N 37°52' W 122°30'0 0.0
2017-Oct-01 12:29N 37°52' W 122°30'0 0.0
2017-Oct-01 11:59N 37°52' W 122°30'0 0.0
2017-Oct-01 11:29N 37°52' W 122°30'0 0.0
2017-Oct-01 10:59N 37°52' W 122°30'0 0.0
2017-Oct-01 10:29N 37°52' W 122°30'0 0.0
2017-Oct-01 09:59N 37°52' W 122°30'0 0.0
2017-Oct-01 09:29N 37°52' W 122°30'0 0.0
2017-Oct-01 08:56N 37°52' W 122°30'0 0.0
2017-Oct-01 08:29N 37°52' W 122°30'0 0.0
2017-Oct-01 07:59N 37°52' W 122°30'0 0.0
2017-Oct-01 07:29N 37°52' W 122°30'0 0.0
2017-Oct-01 06:59N 37°52' W 122°30'0 0.0
2017-Oct-01 06:29N 37°52' W 122°30'0 0.0
2017-Oct-01 05:59N 37°52' W 122°30'0 0.0
2017-Oct-01 05:29N 37°52' W 122°30'0 0.0
2017-Sep-30 01:52N 37°52' W 122°30'0 0.0
2017-Sep-30 01:25N 37°52' W 122°30'0 0.0
2017-Sep-30 00:58N 37°52' W 122°30'0 0.0
2017-Sep-30 00:28N 37°52' W 122°30'0 0.0
2017-Sep-29 23:55N 37°52' W 122°30'0 0.0
2017-Sep-29 23:22N 37°52' W 122°30'0 0.0
2017-Sep-29 22:58N 37°52' W 122°30'0 0.0
2017-Sep-29 21:04N 37°52' W 122°30'0 0.0
2017-Sep-29 20:58N 37°52' W 122°30'0 0.0
2017-Sep-29 20:25N 37°52' W 122°30'0 0.7
2017-Sep-29 20:00N 37°52' W 122°29'4 6.6
2017-Sep-29 19:28N 37°48' W 122°30'2714.3
2017-Sep-29 17:36N 37°57' W 123°02'315.9
2017-Sep-29 17:26N 37°60' W 123°03'715.6
2017-Sep-29 17:00N 38°06' W 123°03'815.5
2017-Sep-29 16:30N 38°14' W 123°02'510.8
2017-Sep-29 16:00N 38°19' W 123°03'1 1.1
2017-Sep-29 15:28N 38°20' W 123°03'0 0.1
2017-Sep-29 14:56N 38°20' W 123°03'0 0.0
2017-Sep-29 14:26N 38°20' W 123°03'0 0.0
2017-Sep-29 13:56N 38°20' W 123°03'0 0.0
2017-Sep-29 13:26N 38°20' W 123°03'0 0.0
2017-Sep-29 12:56N 38°20' W 123°03'0 0.0
2017-Sep-29 12:26N 38°20' W 123°03'0 0.0
2017-Sep-29 11:56N 38°20' W 123°03'0 0.0
2017-Sep-29 11:26N 38°20' W 123°03'0 0.0
2017-Sep-29 10:56N 38°20' W 123°03'0 0.1
2017-Sep-29 10:26N 38°20' W 123°03'0 0.1
2017-Sep-29 09:56N 38°20' W 123°03'0 0.0
2017-Sep-29 09:26N 38°20' W 123°03'0 0.0
2017-Sep-29 08:56N 38°20' W 123°03'0 0.0
2017-Sep-29 08:26N 38°20' W 123°03'0 0.0
2017-Sep-29 07:50N 38°20' W 123°03'0 0.0
2017-Sep-29 07:26N 38°20' W 123°03'0 0.0
2017-Sep-29 06:56N 38°20' W 123°03'0 0.0
2017-Sep-29 06:26N 38°20' W 123°03'0 0.0
2017-Sep-29 05:56N 38°20' W 123°03'0 0.0
2017-Sep-29 05:14N 38°20' W 123°03'0 0.0
2017-Sep-29 04:56N 38°20' W 123°03'0 0.0
2017-Sep-29 04:26N 38°20' W 123°03'0 0.0
2017-Sep-29 03:56N 38°20' W 123°03'0 0.0
2017-Sep-29 03:26N 38°20' W 123°03'0 0.0
2017-Sep-29 02:56N 38°20' W 123°03'0 0.0
2017-Sep-29 02:14N 38°20' W 123°03'0 0.0
2017-Sep-29 01:56N 38°20' W 123°03'0 0.0
2017-Sep-29 01:26N 38°20' W 123°03'0 0.1
2017-Sep-29 01:00N 38°20' W 123°03'3 5.8
2017-Sep-29 00:30N 38°17' W 123°03'816.8
2017-Sep-29 00:00N 38°22' W 123°12'  

Dump ship's entire track history